DAOR/CBH METAR and TAF weather

Enter ICAO airport designator
Station Type Date Time Source
DAOR METAR 2019/08/22 03:00 UTC NOAA

DAOR 220300Z 36002KT CAVOK 28/01 Q1016


Station Type Date Time Source
DAOR Decoded METAR 2019/08/22 03:00 UTC NOAA

Station name not available
Aug 21, 2019 - 11:00 PM EDT / 2019.08.22 0300 UTC
Wind: from the N (360 degrees) at 2 MPH (2 KT):0
Visibility: greater than 7 mile(s):0
Temperature: 82 F (28 C)
Dew Point: 33 F (1 C)
Relative Humidity: 17%
Pressure (altimeter): 30.00 in. Hg (1016 hPa)
ob: DAOR 220300Z 36002KT CAVOK 28/01 Q1016
cycle: 3

Station Type Date Time Source
DAOR TAF 2017/11/09 18:03 UTC NOAA

TAF DAOR 091700Z 0918/1009 35010KT 6000 FEW033 SCT100
TEMPO 0918/0924 3000 BLSA PROB40
TEMPO 0918/0924 35020G35KT 2000 -TSRA FEW030CB

Example: see airport list